Maracay, Venezuela
Current Conditions -  °F | °C
As of 4:00 PM on Wednesday 17 Dec 2014 (Local Time) from SVVA Reporting Station
Scattered Clouds Scattered Clouds  
Wind Chill: 93°   Ceiling: Unl
Heat Index: 99°   Visibility: 6mi
Dew Point: 70°   Wind: 6mph
Humidity: 46%   Direction: 110°ESE
Pressure: 29.91"   Gusts: NA
Location:  10.33°N, 67.47°W
Report Text: SVVA 172000Z 11005KT 9999 SCT016 34/21 Q1013
Loading
Personal Weather Stations






























Interactive Weather Map New forecast layout! Learn more

10-Day Weather Forecast

Advertisements
Track Severe Weather on mobile